createdAt,value
2022-12-29T00:02:05.534Z,5.33
2022-12-29T00:04:14.641Z,5.35
2022-12-29T00:06:20.739Z,5.37
2022-12-29T00:08:26.745Z,5.33
2022-12-29T00:10:31.979Z,5.36
2022-12-29T00:12:37.622Z,5.36
2022-12-29T00:14:42.702Z,5.39
2022-12-29T00:16:49.149Z,5.37
2022-12-29T00:18:54.888Z,5.41
2022-12-29T00:21:00.187Z,5.4
2022-12-29T00:23:05.614Z,5.43
2022-12-29T00:25:11.339Z,5.41
2022-12-29T00:27:17.187Z,5.41
2022-12-29T00:29:23.628Z,5.44
2022-12-29T00:31:29.225Z,5.42
2022-12-29T00:33:35.850Z,5.43
2022-12-29T00:35:41.135Z,5.45
2022-12-29T00:37:46.595Z,5.48
2022-12-29T00:39:56.002Z,5.44
2022-12-29T00:42:01.502Z,5.47
2022-12-29T00:44:06.884Z,5.45
2022-12-29T00:46:17.727Z,5.45
2022-12-29T00:48:25.190Z,5.48
2022-12-29T00:50:30.449Z,5.45
2022-12-29T00:52:35.889Z,5.47
2022-12-29T00:54:41.666Z,5.53
2022-12-29T00:56:46.806Z,5.48
2022-12-29T00:58:52.362Z,5.47
2022-12-29T01:00:57.590Z,5.41
2022-12-29T01:03:03.373Z,5.43
2022-12-29T01:05:09.117Z,5.4
2022-12-29T01:07:14.202Z,5.42
2022-12-29T01:09:21.296Z,5.44
2022-12-29T01:11:26.433Z,5.44
2022-12-29T01:13:33.560Z,5.4
2022-12-29T01:15:38.842Z,5.41
2022-12-29T01:17:44.284Z,5.45
2022-12-29T01:19:51.947Z,5.42
2022-12-29T01:21:57.077Z,5.43
2022-12-29T01:24:02.163Z,5.42
2022-12-29T01:26:07.579Z,5.41
2022-12-29T01:28:13.024Z,5.46
2022-12-29T01:30:22.584Z,5.4
2022-12-29T01:32:27.947Z,5.41
2022-12-29T01:34:34.332Z,5.4
2022-12-29T01:36:39.628Z,5.44
2022-12-29T01:38:45.127Z,5.43
2022-12-29T01:40:50.797Z,5.42
2022-12-29T01:42:55.878Z,5.33
2022-12-29T01:45:00.989Z,5.34
2022-12-29T01:47:06.213Z,5.33
2022-12-29T01:49:11.389Z,5.4
2022-12-29T01:51:17.004Z,5.39
2022-12-29T01:53:23.413Z,5.38
2022-12-29T01:55:28.872Z,5.36
2022-12-29T01:57:34.847Z,5.37
2022-12-29T01:59:40.846Z,5.37
2022-12-29T02:01:46.311Z,5.34
2022-12-29T02:03:52.648Z,5.36
2022-12-29T02:05:57.727Z,5.34
2022-12-29T02:08:03.080Z,5.33
2022-12-29T02:10:08.347Z,5.28
2022-12-29T02:12:13.621Z,5.28
2022-12-29T02:14:21.112Z,5.26
2022-12-29T02:16:26.530Z,5.27
2022-12-29T02:18:32.173Z,5.25
2022-12-29T02:20:38.414Z,5.25
2022-12-29T02:22:43.753Z,5.18
2022-12-29T02:24:48.826Z,5.17
2022-12-29T02:26:53.896Z,5.19
2022-12-29T02:28:59.707Z,5.21
2022-12-29T02:31:05.310Z,5.16
2022-12-29T02:33:11.458Z,5.18
2022-12-29T02:35:17.288Z,5.17
2022-12-29T02:37:23.753Z,5.12
2022-12-29T02:39:29.365Z,5.11
2022-12-29T02:41:34.642Z,5.15
2022-12-29T02:43:40.111Z,5.14
2022-12-29T02:45:45.446Z,5.1
2022-12-29T02:47:50.707Z,5.04
2022-12-29T02:49:55.858Z,4.98
2022-12-29T02:52:00.982Z,4.95
2022-12-29T02:54:06.002Z,4.89
2022-12-29T02:56:11.551Z,4.74
2022-12-29T02:58:17.399Z,4.67
2022-12-29T03:00:26.011Z,4.66
2022-12-29T03:02:31.224Z,4.64
2022-12-29T03:04:37.657Z,4.52
2022-12-29T03:06:43.116Z,4.49
2022-12-29T03:08:49.661Z,4.38
2022-12-29T03:10:54.838Z,4.35
2022-12-29T03:13:00.368Z,4.26
2022-12-29T03:15:05.797Z,4.22
2022-12-29T03:17:11.631Z,4.17
2022-12-29T03:19:18.583Z,4.13
2022-12-29T03:21:26.989Z,4.12
2022-12-29T03:23:32.014Z,4.08
2022-12-29T03:25:37.650Z,4.07
2022-12-29T03:27:43.137Z,4.01
2022-12-29T03:29:48.399Z,3.99
2022-12-29T03:31:53.776Z,3.97
2022-12-29T03:33:59.256Z,3.91
2022-12-29T03:36:04.651Z,3.89
2022-12-29T03:38:10.290Z,3.87
2022-12-29T03:40:16.947Z,3.86
2022-12-29T03:42:23.436Z,3.83
2022-12-29T03:44:28.582Z,3.78
2022-12-29T03:46:33.995Z,3.74
2022-12-29T03:48:39.979Z,3.72
2022-12-29T03:50:45.362Z,3.73
2022-12-29T03:52:50.493Z,3.72
2022-12-29T03:54:55.875Z,3.7
2022-12-29T03:57:01.352Z,3.66
2022-12-29T03:59:06.232Z,3.6
2022-12-29T04:01:13.534Z,3.59
2022-12-29T04:03:22.573Z,3.55
2022-12-29T04:05:29.270Z,3.55
2022-12-29T04:07:34.705Z,3.51
2022-12-29T04:09:40.028Z,3.51
2022-12-29T04:11:45.712Z,3.48
2022-12-29T04:13:50.942Z,3.52
2022-12-29T04:15:56.580Z,3.52
2022-12-29T04:18:02.152Z,3.53
2022-12-29T04:20:07.703Z,3.5
2022-12-29T04:22:13.114Z,3.58
2022-12-29T04:24:20.204Z,3.57
2022-12-29T04:26:25.753Z,3.58
2022-12-29T04:28:36.188Z,3.58
2022-12-29T04:30:41.945Z,3.59
2022-12-29T04:32:47.326Z,3.59
2022-12-29T04:34:52.574Z,3.64
2022-12-29T04:36:57.842Z,3.6
2022-12-29T04:39:03.015Z,3.61
2022-12-29T04:41:09.449Z,3.63
2022-12-29T04:43:14.817Z,3.65
2022-12-29T04:45:21.258Z,3.61
2022-12-29T04:47:28.999Z,3.62
2022-12-29T04:49:34.209Z,3.62
2022-12-29T04:51:39.377Z,3.63
2022-12-29T04:53:44.522Z,3.6
2022-12-29T04:55:49.571Z,3.62
2022-12-29T04:57:54.700Z,3.64
2022-12-29T04:59:59.908Z,3.66
2022-12-29T05:02:05.558Z,3.67
2022-12-29T05:04:12.172Z,3.67
2022-12-29T05:06:18.406Z,3.65
2022-12-29T05:08:27.935Z,3.61
2022-12-29T05:10:33.626Z,3.6
2022-12-29T05:12:38.828Z,3.66
2022-12-29T05:14:44.524Z,3.72
2022-12-29T05:16:49.588Z,3.72
2022-12-29T05:18:54.877Z,3.68
2022-12-29T05:21:00.110Z,3.65
2022-12-29T05:23:05.369Z,3.67
2022-12-29T05:25:10.603Z,3.62
2022-12-29T05:27:16.486Z,3.63
2022-12-29T05:29:24.223Z,3.61
2022-12-29T05:31:29.533Z,3.66
2022-12-29T05:33:35.749Z,3.71
2022-12-29T05:35:40.874Z,3.68
2022-12-29T05:37:46.182Z,3.71
2022-12-29T05:39:51.504Z,3.75
2022-12-29T05:41:58.131Z,3.78
2022-12-29T05:44:03.595Z,3.79
2022-12-29T05:46:08.689Z,3.8
2022-12-29T05:48:13.911Z,3.82
2022-12-29T05:50:19.101Z,3.82
2022-12-29T05:52:24.404Z,3.86
2022-12-29T05:54:29.521Z,3.91
2022-12-29T05:56:35.217Z,3.87
2022-12-29T05:58:40.289Z,3.93
2022-12-29T06:00:45.428Z,3.9
2022-12-29T06:02:50.954Z,3.93
2022-12-29T06:04:57.472Z,3.93
2022-12-29T06:07:03.643Z,3.96
2022-12-29T06:09:09.014Z,4.09
2022-12-29T06:11:14.222Z,4.18
2022-12-29T06:13:20.055Z,4.16
2022-12-29T06:15:25.415Z,4.16
2022-12-29T06:17:30.560Z,4.2
2022-12-29T06:19:35.794Z,4.23
2022-12-29T06:21:41.474Z,4.28
2022-12-29T06:23:46.542Z,4.32
2022-12-29T06:25:51.729Z,4.32
2022-12-29T06:27:57.064Z,4.31
2022-12-29T06:30:02.528Z,4.38
2022-12-29T06:32:08.138Z,4.43
2022-12-29T06:34:13.710Z,4.46
2022-12-29T06:36:18.948Z,4.47
2022-12-29T06:38:29.041Z,4.47
2022-12-29T06:40:34.182Z,4.52
2022-12-29T06:42:39.643Z,4.58
2022-12-29T06:44:45.152Z,4.55
2022-12-29T06:46:50.315Z,4.52
2022-12-29T06:48:55.643Z,4.46
2022-12-29T06:51:01.281Z,4.41
2022-12-29T06:53:06.533Z,4.44
2022-12-29T06:55:11.972Z,4.46
2022-12-29T06:57:17.373Z,4.46
2022-12-29T06:59:22.818Z,4.46
2022-12-29T07:01:28.413Z,4.49
2022-12-29T07:03:34.570Z,4.48
2022-12-29T07:05:40.292Z,4.52
2022-12-29T07:07:45.769Z,4.58
2022-12-29T07:09:52.210Z,4.6
2022-12-29T07:11:58.193Z,4.64
2022-12-29T07:14:03.890Z,4.68
2022-12-29T07:16:09.079Z,4.74
2022-12-29T07:18:14.446Z,4.83
2022-12-29T07:22:46.045Z,4.88
2022-12-29T07:24:51.556Z,4.96
2022-12-29T07:26:57.323Z,4.98
2022-12-29T07:29:02.791Z,5.03
2022-12-29T07:31:08.034Z,5.11
2022-12-29T07:33:14.193Z,5.13
2022-12-29T07:35:20.655Z,5.19
2022-12-29T07:37:25.743Z,5.28
2022-12-29T07:39:30.978Z,5.29
2022-12-29T07:41:36.657Z,5.34
2022-12-29T07:43:42.059Z,5.41
2022-12-29T07:45:47.772Z,5.46
2022-12-29T07:47:54.002Z,5.51
2022-12-29T07:50:01.673Z,5.53
2022-12-29T07:52:07.828Z,5.5
2022-12-29T07:54:13.375Z,5.54
2022-12-29T07:56:22.145Z,5.64
2022-12-29T07:58:28.406Z,5.66
2022-12-29T08:00:34.233Z,5.67
2022-12-29T08:02:39.688Z,5.73
2022-12-29T08:04:52.703Z,5.79
2022-12-29T08:07:05.317Z,5.82
2022-12-29T08:09:22.579Z,5.85
2022-12-29T08:11:36.129Z,5.88
2022-12-29T08:13:45.967Z,5.95
2022-12-29T08:15:52.485Z,6.01
2022-12-29T08:17:58.588Z,6.02
2022-12-29T08:20:07.839Z,6.01
2022-12-29T08:22:14.653Z,6.14
2022-12-29T08:24:26.682Z,6.13
2022-12-29T08:26:39.774Z,6.26
2022-12-29T08:28:50.326Z,6.29
2022-12-29T08:30:58.800Z,6.43
2022-12-29T08:33:05.304Z,6.4
2022-12-29T08:35:19.128Z,6.37
2022-12-29T08:37:29.224Z,6.41
2022-12-29T08:39:36.475Z,6.43
2022-12-29T08:41:41.940Z,6.51
2022-12-29T08:43:50.154Z,6.53
2022-12-29T08:48:57.796Z,6.4
2022-12-29T08:51:04.221Z,6.41
2022-12-29T08:55:32.949Z,6.45
2022-12-29T08:57:42.119Z,6.51
2022-12-29T08:59:50.150Z,6.53
2022-12-29T09:02:04.716Z,6.59
2022-12-29T09:04:15.908Z,6.58
2022-12-29T09:06:23.794Z,6.74
2022-12-29T09:08:41.412Z,6.68
2022-12-29T09:10:49.494Z,6.67
2022-12-29T09:12:54.699Z,6.7
2022-12-29T09:15:01.236Z,6.65
2022-12-29T09:17:10.680Z,6.68
2022-12-29T09:19:19.601Z,6.64
2022-12-29T09:21:35.085Z,6.64
2022-12-29T09:23:43.730Z,6.72
2022-12-29T09:25:55.317Z,6.74
2022-12-29T09:28:03.068Z,6.78
2022-12-29T09:30:09.361Z,6.86
2022-12-29T09:32:18.653Z,6.86
2022-12-29T09:34:35.893Z,6.79
2022-12-29T09:36:44.244Z,6.77
2022-12-29T09:38:56.854Z,6.77
2022-12-29T09:41:11.778Z,6.77
2022-12-29T09:45:47.235Z,6.79
2022-12-29T09:47:53.966Z,6.8
2022-12-29T09:50:05.492Z,6.82
2022-12-29T09:52:11.153Z,6.91
2022-12-29T09:54:18.442Z,6.87
2022-12-29T09:56:27.580Z,6.94
2022-12-29T09:58:39.743Z,6.91
2022-12-29T10:00:55.263Z,6.92
2022-12-29T10:03:10.417Z,7.02
2022-12-29T10:05:19.504Z,7.05
2022-12-29T10:07:38.747Z,7.01
2022-12-29T10:09:43.870Z,7.04
2022-12-29T10:11:49.545Z,7.08
2022-12-29T10:13:56.110Z,7.1
2022-12-29T10:16:18.266Z,7.16
2022-12-29T10:18:26.411Z,7.24
2022-12-29T10:20:33.809Z,7.34
2022-12-29T10:25:02.042Z,7.64
2022-12-29T10:27:07.688Z,7.73
2022-12-29T10:29:19.850Z,7.72
2022-12-29T10:34:39.866Z,7.94
2022-12-29T10:36:45.985Z,7.79
2022-12-29T10:38:52.438Z,7.84
2022-12-29T10:43:21.221Z,7.94
2022-12-29T10:45:27.739Z,7.99
2022-12-29T10:47:33.468Z,7.84
2022-12-29T10:49:39.784Z,7.86
2022-12-29T10:51:48.701Z,7.86
2022-12-29T10:53:58.159Z,7.85
2022-12-29T10:56:04.862Z,7.84
2022-12-29T10:58:45.648Z,7.87
2022-12-29T11:00:59.159Z,7.8
2022-12-29T11:05:40.919Z,7.85
2022-12-29T11:07:47.671Z,7.85
2022-12-29T11:10:05.251Z,7.8
2022-12-29T11:12:16.649Z,7.82
2022-12-29T11:14:34.610Z,7.85
2022-12-29T11:16:43.294Z,7.86
2022-12-29T11:18:51.961Z,7.91
2022-12-29T11:21:01.927Z,7.92
2022-12-29T11:23:08.401Z,7.88
2022-12-29T11:25:23.361Z,7.9
2022-12-29T11:27:28.420Z,7.97
2022-12-29T11:29:33.682Z,7.97
2022-12-29T11:31:38.895Z,7.96
2022-12-29T11:33:44.370Z,7.97
2022-12-29T11:35:50.266Z,8
2022-12-29T11:37:58.815Z,8.11
2022-12-29T11:40:46.974Z,8.14
2022-12-29T11:43:02.368Z,8.1
2022-12-29T11:45:11.008Z,8.15
2022-12-29T11:47:19.182Z,8.23
2022-12-29T11:49:28.309Z,8.27
2022-12-29T11:54:39.768Z,8.3
2022-12-29T11:56:49.295Z,8.31
2022-12-29T11:58:56.434Z,8.32
2022-12-29T12:01:02.945Z,8.35
2022-12-29T12:03:08.970Z,8.36
2022-12-29T12:05:17.268Z,8.33
2022-12-29T12:07:22.542Z,8.4
2022-12-29T12:09:27.980Z,8.42
2022-12-29T12:11:33.477Z,8.45
2022-12-29T12:13:39.292Z,8.49
2022-12-29T12:15:46.863Z,8.57
2022-12-29T12:21:10.261Z,8.81
2022-12-29T12:23:15.757Z,8.82
2022-12-29T12:25:20.767Z,8.82
2022-12-29T12:27:28.196Z,8.85
2022-12-29T12:29:35.554Z,8.9
2022-12-29T12:31:43.174Z,8.95
2022-12-29T12:33:48.730Z,8.97
2022-12-29T12:35:54.631Z,8.95
2022-12-29T12:38:00.660Z,8.95
2022-12-29T12:40:06.385Z,9.03
2022-12-29T12:42:11.889Z,8.98
2022-12-29T12:44:17.543Z,9.04
2022-12-29T12:46:23.735Z,9.02
2022-12-29T12:48:29.488Z,9.03
2022-12-29T12:50:38.780Z,9.09
2022-12-29T12:52:45.718Z,9.07
2022-12-29T12:54:51.100Z,9.05
2022-12-29T12:56:56.806Z,9.05
2022-12-29T12:59:09.096Z,9.05
2022-12-29T13:01:15.427Z,9.04
2022-12-29T13:03:21.728Z,9.02
2022-12-29T13:08:23.546Z,9.01
2022-12-29T13:10:29.832Z,8.98
2022-12-29T13:12:35.878Z,9.03
2022-12-29T13:14:42.118Z,9.01
2022-12-29T13:16:47.760Z,9
2022-12-29T13:18:53.414Z,9.03
2022-12-29T13:24:22.294Z,9.03
2022-12-29T13:26:28.814Z,9.07
2022-12-29T13:28:35.059Z,9.05
2022-12-29T13:30:54.189Z,9
2022-12-29T13:33:00.492Z,9.01
2022-12-29T13:35:05.815Z,9.03
2022-12-29T13:37:11.129Z,9
2022-12-29T13:39:20.821Z,9.06
2022-12-29T13:41:26.978Z,9.07
2022-12-29T13:43:32.727Z,8.98
2022-12-29T13:45:39.021Z,9.04
2022-12-29T13:56:56.933Z,9.15
2022-12-29T13:59:03.071Z,9.17
2022-12-29T14:01:08.546Z,9.15
2022-12-29T14:10:22.553Z,9.17
2022-12-29T14:12:30.774Z,9.22
2022-12-29T14:14:36.007Z,9.19
2022-12-29T14:16:41.672Z,9.21
2022-12-29T14:18:47.280Z,9.19
2022-12-29T14:20:53.998Z,9.19
2022-12-29T14:23:00.552Z,9.18
2022-12-29T14:25:06.327Z,9.18
2022-12-29T14:27:11.852Z,9.18
2022-12-29T14:29:17.956Z,9.21
2022-12-29T14:31:24.428Z,9.25
2022-12-29T14:33:30.896Z,9.27
2022-12-29T14:35:37.339Z,9.26
2022-12-29T14:37:43.837Z,9.27
2022-12-29T14:39:49.823Z,9.26
2022-12-29T14:41:55.577Z,9.25
2022-12-29T14:44:00.884Z,9.24
2022-12-29T14:46:06.669Z,9.2
2022-12-29T14:48:11.980Z,9.24
2022-12-29T14:50:17.462Z,9.25
2022-12-29T14:52:22.969Z,9.25
2022-12-29T14:54:30.188Z,9.28
2022-12-29T14:56:36.632Z,9.3
2022-12-29T14:58:42.711Z,9.29
2022-12-29T15:00:48.514Z,9.28
2022-12-29T15:02:54.735Z,9.25
2022-12-29T15:05:00.725Z,9.26
2022-12-29T15:07:06.737Z,9.27
2022-12-29T15:09:14.834Z,9.25
2022-12-29T15:11:21.252Z,9.21
2022-12-29T15:13:26.435Z,9.27
2022-12-29T15:15:32.107Z,9.26
2022-12-29T15:17:38.328Z,9.25
2022-12-29T15:19:44.391Z,9.28
2022-12-29T15:21:50.109Z,9.3
2022-12-29T15:23:56.432Z,9.24
2022-12-29T15:26:02.412Z,9.25
2022-12-29T15:28:08.735Z,9.24
2022-12-29T15:30:17.963Z,9.19
2022-12-29T15:32:23.683Z,9.22
2022-12-29T15:34:29.432Z,9.18
2022-12-29T15:36:36.093Z,9.18
2022-12-29T15:38:42.161Z,9.24
2022-12-29T15:40:47.677Z,9.18
2022-12-29T15:42:56.481Z,9.21
2022-12-29T15:45:10.470Z,9.2
2022-12-29T15:47:16.913Z,9.19
2022-12-29T15:49:27.403Z,9.15
2022-12-29T15:51:37.350Z,9.08
2022-12-29T15:53:42.628Z,9.04
2022-12-29T15:55:49.446Z,8.99
2022-12-29T15:58:00.118Z,8.98
2022-12-29T16:00:05.720Z,8.98
2022-12-29T16:02:12.587Z,8.92
2022-12-29T16:04:19.312Z,8.81
2022-12-29T16:06:26.553Z,8.82
2022-12-29T16:08:32.465Z,8.77
2022-12-29T16:10:38.031Z,8.77
2022-12-29T16:12:45.231Z,8.76
2022-12-29T16:14:51.297Z,8.73
2022-12-29T16:16:57.520Z,8.71
2022-12-29T16:19:03.996Z,8.64
2022-12-29T16:21:11.350Z,8.61
2022-12-29T16:23:17.446Z,8.59
2022-12-29T16:25:25.490Z,8.52
2022-12-29T16:27:34.634Z,8.51
2022-12-29T16:29:41.024Z,8.42
2022-12-29T16:31:47.502Z,8.27
2022-12-29T16:33:54.734Z,8.31
2022-12-29T16:36:00.287Z,8.31
2022-12-29T16:38:06.979Z,8.41
2022-12-29T16:40:12.504Z,8.4
2022-12-29T16:42:18.745Z,8.36
2022-12-29T16:44:24.767Z,8.44
2022-12-29T16:46:31.542Z,8.5
2022-12-29T16:48:37.755Z,8.56
2022-12-29T16:50:43.375Z,8.58
2022-12-29T16:52:48.998Z,8.53
2022-12-29T16:54:55.319Z,8.53
2022-12-29T16:57:00.857Z,8.56
2022-12-29T16:59:07.840Z,8.49
2022-12-29T17:01:13.909Z,8.4
2022-12-29T17:03:19.569Z,8.35
2022-12-29T17:05:26.532Z,8.27
2022-12-29T17:07:35.865Z,8.27
2022-12-29T17:09:41.414Z,8.28
2022-12-29T17:11:50.245Z,8.21
2022-12-29T17:14:15.188Z,8.23
2022-12-29T17:16:20.726Z,8.15
2022-12-29T17:18:26.581Z,8.1
2022-12-29T17:20:31.926Z,8.07
2022-12-29T17:22:37.359Z,8.08
2022-12-29T17:24:43.743Z,8.06
2022-12-29T17:26:55.471Z,8.1
2022-12-29T17:29:02.321Z,8.14
2022-12-29T17:31:08.842Z,8.1
2022-12-29T17:33:15.549Z,8.09
2022-12-29T17:35:21.710Z,8.09
2022-12-29T17:37:27.250Z,8.01
2022-12-29T17:39:32.969Z,8
2022-12-29T17:41:39.934Z,8.01
2022-12-29T17:43:45.795Z,7.96
2022-12-29T17:45:51.715Z,8
2022-12-29T17:47:58.990Z,7.97
2022-12-29T17:50:05.542Z,8.03
2022-12-29T17:52:13.091Z,8.05
2022-12-29T17:54:19.187Z,8.01
2022-12-29T17:56:25.457Z,7.98
2022-12-29T17:58:31.538Z,7.97
2022-12-29T18:00:43.747Z,7.99
2022-12-29T18:02:53.497Z,8
2022-12-29T18:04:59.573Z,7.99
2022-12-29T18:07:06.350Z,8.01
2022-12-29T18:09:12.562Z,7.98
2022-12-29T18:11:18.927Z,8
2022-12-29T18:13:24.227Z,8.02
2022-12-29T18:15:48.664Z,8.06
2022-12-29T18:17:54.652Z,8.05
2022-12-29T18:20:00.144Z,8.02
2022-12-29T18:22:05.616Z,8.03
2022-12-29T18:24:11.090Z,8.03
2022-12-29T18:26:20.845Z,8.01
2022-12-29T18:28:32.760Z,8.03
2022-12-29T18:30:38.268Z,8
2022-12-29T18:32:44.765Z,7.97
2022-12-29T18:34:51.688Z,7.96
2022-12-29T18:36:57.929Z,8.04
2022-12-29T18:39:03.674Z,8.08
2022-12-29T18:41:10.005Z,8.05
2022-12-29T18:43:16.792Z,8.04
2022-12-29T18:45:22.805Z,8.06
2022-12-29T18:47:29.703Z,8.02
2022-12-29T18:49:36.562Z,8.04
2022-12-29T18:51:42.988Z,8.02
2022-12-29T18:53:49.905Z,8.03
2022-12-29T18:55:56.980Z,8.05
2022-12-29T18:58:03.099Z,8.09
2022-12-29T19:00:09.145Z,8.02
2022-12-29T19:02:15.971Z,7.9
2022-12-29T19:04:22.257Z,7.92
2022-12-29T19:06:27.624Z,7.85
2022-12-29T19:08:35.131Z,7.79
2022-12-29T19:10:41.841Z,7.8
2022-12-29T19:12:48.650Z,7.87
2022-12-29T19:14:54.603Z,7.86
2022-12-29T19:16:59.825Z,7.95
2022-12-29T19:19:09.927Z,7.99
2022-12-29T19:21:15.965Z,7.99
2022-12-29T19:23:21.945Z,8.02
2022-12-29T19:25:27.675Z,8
2022-12-29T19:27:34.532Z,7.99
2022-12-29T19:29:41.271Z,8.01
2022-12-29T19:31:47.828Z,8
2022-12-29T19:33:54.259Z,8.03
2022-12-29T19:36:01.652Z,8.07
2022-12-29T19:38:08.125Z,8.04
2022-12-29T19:40:16.647Z,8.09
2022-12-29T19:42:26.286Z,8.1
2022-12-29T19:44:33.185Z,8.11
2022-12-29T19:46:40.110Z,8.11
2022-12-29T19:48:46.202Z,8.16
2022-12-29T19:50:52.799Z,8.21
2022-12-29T19:53:04.972Z,8.21
2022-12-29T19:55:12.311Z,8.24
2022-12-29T19:57:19.539Z,8.23
2022-12-29T19:59:26.483Z,8.27
2022-12-29T20:01:33.008Z,8.28
2022-12-29T20:03:41.243Z,8.25
2022-12-29T20:05:49.732Z,8.29
2022-12-29T20:07:59.047Z,8.33
2022-12-29T20:10:06.416Z,8.33
2022-12-29T20:12:14.085Z,8.3
2022-12-29T20:14:26.259Z,8.28
2022-12-29T20:16:32.359Z,8.31
2022-12-29T20:19:13.415Z,8.29
2022-12-29T20:21:19.408Z,8.25
2022-12-29T20:23:26.265Z,8.25
2022-12-29T20:25:49.835Z,8.22
2022-12-29T20:27:58.047Z,8.17
2022-12-29T20:30:04.504Z,8.13
2022-12-29T20:32:10.409Z,8.15
2022-12-29T20:34:17.461Z,8.2
2022-12-29T20:36:23.441Z,8.27
2022-12-29T20:38:30.886Z,8.25
2022-12-29T20:40:42.544Z,8.24
2022-12-29T20:42:55.366Z,8.22
2022-12-29T20:45:02.175Z,8.19
2022-12-29T20:47:08.478Z,8.17
2022-12-29T20:49:16.595Z,8.35
2022-12-29T20:51:22.743Z,8.17
2022-12-29T20:53:28.883Z,8.27
2022-12-29T20:55:35.454Z,8.23
2022-12-29T21:00:30.964Z,8.2
2022-12-29T21:02:37.161Z,8.12
2022-12-29T21:05:21.923Z,8.23
2022-12-29T21:07:30.644Z,8.13
2022-12-29T21:09:36.093Z,8.1
2022-12-29T21:11:41.932Z,8.16
2022-12-29T21:13:47.965Z,8.17
2022-12-29T21:15:54.441Z,8.22
2022-12-29T21:18:01.549Z,8.2
2022-12-29T21:20:08.751Z,8.2
2022-12-29T21:22:14.368Z,8.21
2022-12-29T21:24:20.422Z,8.2
2022-12-29T21:26:28.180Z,8.13
2022-12-29T21:28:33.515Z,8.15
2022-12-29T21:30:39.009Z,8
2022-12-29T21:32:44.909Z,7.98
2022-12-29T21:34:50.212Z,7.99
2022-12-29T21:36:55.303Z,7.94
2022-12-29T21:39:00.658Z,7.98
2022-12-29T21:41:05.982Z,7.86
2022-12-29T21:43:11.474Z,7.74
2022-12-29T21:45:20.628Z,7.66
2022-12-29T21:47:27.660Z,7.66
2022-12-29T21:49:33.485Z,7.58
2022-12-29T21:51:39.058Z,7.53
2022-12-29T21:53:44.454Z,7.55
2022-12-29T21:55:50.080Z,7.47
2022-12-29T21:57:55.343Z,7.36
2022-12-29T22:00:00.577Z,7.41
2022-12-29T22:02:06.635Z,7.41
2022-12-29T22:04:13.133Z,7.36
2022-12-29T22:06:18.636Z,7.44
2022-12-29T22:08:24.365Z,7.5
2022-12-29T22:10:29.937Z,7.42
2022-12-29T22:12:35.237Z,7.35
2022-12-29T22:14:40.422Z,7.36
2022-12-29T22:16:46.297Z,7.35
2022-12-29T22:18:51.912Z,7.37
2022-12-29T22:20:57.272Z,7.3
2022-12-29T22:23:02.536Z,7.33
2022-12-29T22:25:07.848Z,7.27
2022-12-29T22:27:13.521Z,7.21
2022-12-29T22:29:19.056Z,7.15
2022-12-29T22:31:25.180Z,7.05
2022-12-29T22:33:31.838Z,6.96
2022-12-29T22:35:37.171Z,6.89
2022-12-29T22:37:42.636Z,6.79
2022-12-29T22:39:48.028Z,6.9
2022-12-29T22:41:53.228Z,6.85
2022-12-29T22:43:58.888Z,6.83
2022-12-29T22:46:04.230Z,6.86
2022-12-29T22:48:09.717Z,6.8
2022-12-29T22:50:14.855Z,6.76
2022-12-29T22:52:19.966Z,6.92
2022-12-29T22:54:25.227Z,7.05
2022-12-29T22:56:30.800Z,7.15
2022-12-29T22:58:36.225Z,7.27
2022-12-29T23:00:41.672Z,7.31
2022-12-29T23:02:47.376Z,7.19
2022-12-29T23:05:09.477Z,7.13
2022-12-29T23:07:15.164Z,7.16
2022-12-29T23:09:20.741Z,7.32
2022-12-29T23:11:25.873Z,7.35
2022-12-29T23:13:31.549Z,7.35
2022-12-29T23:15:36.638Z,7.38
2022-12-29T23:17:42.114Z,7.4
2022-12-29T23:19:47.478Z,7.46
2022-12-29T23:21:52.491Z,7.51
2022-12-29T23:23:57.944Z,7.46
2022-12-29T23:26:03.355Z,7.46
2022-12-29T23:28:09.046Z,7.45
2022-12-29T23:30:14.524Z,7.48
2022-12-29T23:32:19.688Z,7.43
2022-12-29T23:34:25.330Z,7.5
2022-12-29T23:36:30.490Z,7.48
2022-12-29T23:38:35.524Z,7.48
2022-12-29T23:40:41.991Z,7.46
2022-12-29T23:42:47.065Z,7.42
2022-12-29T23:44:52.284Z,7.43
2022-12-29T23:46:57.639Z,7.39
2022-12-29T23:49:03.157Z,7.39
2022-12-29T23:51:09.132Z,7.38
2022-12-29T23:53:14.359Z,7.42
2022-12-29T23:55:19.869Z,7.35
2022-12-29T23:57:25.136Z,7.29
2022-12-29T23:59:30.765Z,7.37
